메인 페이지
METAR-TAF:

METAR-TAF

공항 :

공군기지

Ämari, 에스토니아

위도: 59-15-44N, 경도: 24-13-07E, 고도: 20m

현재 날씨관측

예보는 47분 전, 11:05시(UTC)에 발표되었습니다.
북북서7kt
온도 21°C
습도 94%
기압 1012 hPa
시정: 2900m
고도 1700ft 상공 구름 조금
고도 3000ft 상공 구름 보통, 적란운.
고도 4000ft 상공 구름 많음
소나기,

METAR: EEEI 241105Z 34007KT 2900 SHRA FEW017 SCT030CB BKN040 21/20 Q1012

시각: 14:52 (11:52 UTC)

예보

예보는 22분 전, 11:30시(UTC)에 발표되었습니다.
예보 대상 시간: 24일 12시부터 25일 12시까지 (UTC)
여러 방향의 바람 2kt
시정 10km 이상
고도 3000ft 상공 구름 많음
일시적
24일 12시부터 24일 18시까지 (UTC)
시정: 4000m
고도 1500ft 상공 구름 많음
고도 3000ft 상공 구름 보통, 적란운.
소나기
확률 40% :
일시적
24일 12시부터 24일 17시까지 (UTC)
여러 방향의 바람 15kt
시정: 2500m
뇌우, 비
일시적
24일 19시부터 25일 05시까지 (UTC)
시정: 2000m
고도 500ft 상공 구름 많음
박무
확률 40% :
일시적
24일 23시부터 25일 03시까지 (UTC)
시정: 0800m
고도 200ft 상공
안개
일시적
25일 03시부터 25일 12시까지 (UTC)
시정: 3000m
고도 800ft 상공 구름 많음
고도 3000ft 상공 구름 보통, 적란운.
소나기,

TAF: EEEI 241130Z 2412/2512 VRB02KT 9999 BKN030 TEMPO 2412/2418 4000 SHRA BKN015 SCT030CB PROB40 TEMPO 2412/2417 VRB15KT 2500 TSRA TEMPO 2419/2505 2000 BR BKN005 PROB40 TEMPO 2423/2503 0800 FG VV002 TEMPO 2503/2512 3000 SHRA BKN008 SCT030CB

4,000개 이상의 공항 관측 자료 및 예보 (METAR 및 TAF 보고).

지도상에서 검색 가능한 기상관측소가 노란 점과 빨간 점으로 표시되어 있습니다.

기상관측소 명을 보려면 표시 위로 마우스를 이동하세요.

날씨 관측과 예보를 보려면 클릭하세요.

지도 변경 : 확대하려면 엑스 표시가 있는 녹색 버튼, 축소하려면 빼기 표시가 있는 녹색 버튼, 다음 페이지의 지도를 보려면 녹색 화살표를 클릭하세요.


METAR-TAF: